• Join FlightAware (Why Join?)
  • Login
  • US Flag 
06:51AM EDT


 

Airport Tracker/Info


-or-


 

Live Flight TrackerFlight Track Log ✈ N5626Y ✈ 27-Jun-2013 ✈ KMMI - KMDW

Flight Track Log - Related Links

Times and Time Zones

All times are in EDT time to prevent confusion due to time zone crossing. See the N5626Y flight status page for this flight to view local times or setup timezone preferences in your user account.

Time Position Orientation Groundspeed Altitude Reporting Facility
EDT Latitude Longitude Course Direction KTS MPH feet Rate Location/Type
03:24PM 35.5178 -84.6878 340° North 208 239 5,200  Level Indianapolis Center
03:24PM 35.5475 -84.7100 329° Northwest 218 251 6,100 1,260 Climbing Atlanta Center
03:25PM 35.5994 -84.7333 340° North 200 230 7,400 1,200 Climbing Atlanta Center
03:26PM 35.6536 -84.7594 339° North 200 230 8,600 1,260 Climbing Atlanta Center
03:27PM 35.7078 -84.7831 341° North 200 230 10,000 1,440 Climbing Atlanta Center
03:28PM 35.7597 -84.8039 342° North 195 224 11,500 1,320 Climbing Atlanta Center
03:29PM 35.6389 -84.6712 340° North  Level Estimated
03:29PM 35.8097 -84.8247 341° North 189 217 12,700  Level Atlanta Center
03:30PM 35.8636 -84.8458 342° North 189 217 13,700 1,020 Climbing Atlanta Center
03:31PM 35.9261 -84.8747 339° North 202 232 14,800 1,080 Climbing Atlanta Center
03:32PM 35.9544 -84.8806 351° North 214 246 15,400 1,080 Climbing Indianapolis Center
03:33PM 36.0175 -84.8853 357° North 203 234 16,600 1,020 Climbing Indianapolis Center
03:34PM 36.0725 -84.8911 355° North 199 229 17,600 960 Climbing Indianapolis Center
03:35PM 36.1269 -84.8961 356° North 197 227 18,600 780 Climbing Indianapolis Center
03:36PM 36.1833 -84.9044 353° North 201 231 19,300 720 Climbing Indianapolis Center
03:37PM 36.2392 -84.9100 355° North 201 231 20,200 720 Climbing Indianapolis Center
03:38PM 36.2922 -84.9200 351° North 196 226 20,900 720 Climbing Indianapolis Center
03:39PM 36.3567 -84.9278 354° North 194 223 21,800 480 Climbing Indianapolis Center
03:40PM 36.4117 -84.9353 354° North 196 226 22,000 60 Climbing Indianapolis Center
03:41PM 36.4725 -84.9428 354° North 215 247 22,000  Level Indianapolis Center
03:42PM 36.5375 -84.9481 356° North 231 266 22,000  Level Indianapolis Center
03:43PM 36.6019 -84.9583 353° North 234 269 22,000  Level Indianapolis Center
03:44PM 36.6672 -84.9628 357° North 235 270 22,000  Level Indianapolis Center
03:45PM 36.7433 -84.9811 349° North 233 268 22,000  Level Indianapolis Center
03:46PM 36.8017 -85.0158 335° Northwest 232 267 22,000  Level Indianapolis Center
03:47PM 36.8622 -85.0461 338° Northwest 233 268 22,000  Level Indianapolis Center
03:48PM 36.9239 -85.0728 341° North 235 270 22,000  Level Indianapolis Center
03:49PM 36.9847 -85.0986 341° North 231 266 22,000  Level Indianapolis Center
03:50PM 37.0514 -85.1264 342° North 234 269 22,000  Level Indianapolis Center
03:51PM 37.1139 -85.1536 341° North 236 272 22,000  Level Indianapolis Center
03:52PM 37.1758 -85.1792 342° North 234 269 22,000  Level Indianapolis Center
03:54PM 37.2483 -85.2106 341° North 235 270 22,000  Level Indianapolis Center
03:55PM 37.3100 -85.2361 342° North 235 270 22,000  Level Indianapolis Center
03:56PM 37.3722 -85.2642 340° North 236 272 22,000  Level Indianapolis Center
03:57PM 37.4361 -85.2911 341° North 239 275 22,000  Level Indianapolis Center
03:58PM 37.5006 -85.3175 342° North 242 278 22,000  Level Indianapolis Center
03:59PM 37.5639 -85.3456 341° North 240 276 22,000  Level Indianapolis Center
04:00PM 37.6386 -85.3775 341° North 241 277 22,000  Level Indianapolis Center
04:02PM 37.7683 -85.4336 341° North 247 284 22,000  Level Indianapolis Center
04:03PM 37.8375 -85.4642 341° North 249 287 22,000  Level Indianapolis Center
04:04PM 37.9050 -85.4917 342° North 252 290 22,000  Level Indianapolis Center
04:05PM 37.9708 -85.5200 341° North 250 288 22,000  Level Indianapolis Center
04:06PM 38.0361 -85.5483 341° North 248 285 22,000  Level Indianapolis Center
04:07PM 38.1008 -85.5772 341° North 247 284 22,000  Level Indianapolis Center
04:08PM 38.1714 -85.5906 352° North 253 291 22,000  Level Indianapolis Center
04:09PM 38.2564 -85.6061 352° North 256 295 22,000  Level Indianapolis Center
04:10PM 38.3258 -85.6200 351° North 253 291 22,000  Level Indianapolis Center
04:11PM 38.3956 -85.6333 351° North 252 290 22,000  Level Indianapolis Center
04:12PM 38.4644 -85.6469 351° North 250 288 22,000  Level Indianapolis Center
04:13PM 38.5342 -85.6603 351° North 253 291 22,000  Level Indianapolis Center
04:14PM 38.6031 -85.6736 351° North 250 288 22,000  Level Indianapolis Center
04:15PM 38.6778 -85.6886 351° North 252 290 22,000  Level Indianapolis Center
04:16PM 38.7472 -85.6981 354° North 252 290 22,000  Level Indianapolis Center
04:17PM 38.8075 -85.6381 38° Northeast 276 318 22,000  Level Indianapolis Center
04:18PM 38.8808 -85.5708 36° Northeast 269 310 22,000  Level Indianapolis Center
04:19PM 38.9472 -85.5894 348° North 249 287 22,000  Level Indianapolis Center
04:20PM 39.0128 -85.6086 347° North 243 280 22,000  Level Indianapolis Center
04:21PM 39.0772 -85.6267 348° North 238 274 22,000  Level Indianapolis Center
04:22PM 39.1444 -85.6472 347° North 246 283 22,000  Level Indianapolis Center
04:24PM 39.2233 -85.6694 348° North 243 280 22,000  Level Indianapolis Center
04:25PM 39.2897 -85.6886 347° North 244 281 22,000  Level Indianapolis Center
04:26PM 39.3564 -85.7089 347° North 246 283 22,000  Level Indianapolis Center
04:27PM 39.4231 -85.7289 347° North 247 284 22,000  Level Indianapolis Center
04:28PM 39.4903 -85.7478 348° North 248 285 22,000  Level Indianapolis Center
04:29PM 39.5572 -85.7678 347° North 248 285 22,000 -180 Level Indianapolis Center
04:30PM 39.6383 -85.7919 347° North 249 287 21,700 -780 Descending Indianapolis Center
04:31PM 39.7119 -85.8142 347° North 267 307 20,400 -840 Descending Indianapolis Center
04:32PM 39.7881 -85.8358 348° North 279 321 20,000 -240 Descending Indianapolis Center
04:33PM 39.8556 -85.8564 347° North 257 296 20,000  Level Indianapolis Center
04:34PM 39.9353 -85.8803 347° North 248 285 20,000  Level Indianapolis Center
04:35PM 40.0011 -85.8997 347° North 245 282 20,000  Level Indianapolis Center
04:36PM 40.0681 -85.9203 347° North 247 284 20,000  Level Indianapolis Center
04:37PM 40.1314 -85.9481 341° North 243 280 20,000  Level Indianapolis Center
04:38PM 40.1936 -85.9814 338° Northwest 244 281 20,000  Level Indianapolis Center
04:39PM 40.2808 -86.0267 338° Northwest 243 280 20,000  Level Chicago Center
04:40PM 40.3442 -86.0581 339° North 244 281 20,000  Level Chicago Center
04:41PM 40.3978 -86.1069 325° Northwest 237 273 20,000  Level Chicago Center
04:42PM 40.4481 -86.1644 319° Northwest 239 275 20,000 -780 Level Chicago Center
04:43PM 40.5139 -86.2378 320° Northwest 260 299 18,500 -1,380 Descending Chicago Center
04:44PM 40.5728 -86.3058 319° Northwest 280 322 17,200 -1,200 Descending Chicago Center
04:46PM 40.6344 -86.3647 324° Northwest 276 318 16,100 -600 Descending Chicago Center
04:47PM 40.6908 -86.4281 320° Northwest 267 307 16,000 -60 Descending Chicago Center
04:48PM 40.7497 -86.4903 321° Northwest 245 282 16,000  Level Chicago Center
04:49PM 40.8028 -86.5461 321° Northwest 242 278 16,000  Level Chicago Center
04:50PM 40.8564 -86.6014 322° Northwest 243 280 16,000 -600 Level Chicago Center
04:51PM 40.9114 -86.6617 320° Northwest 257 296 14,800 -1,200 Descending Chicago Center
04:52PM 40.9714 -86.7228 322° Northwest 268 308 13,600 -1,320 Descending Chicago Center
04:53PM 41.0378 -86.7914 322° Northwest 272 313 12,100 -1,260 Descending Chicago Center
04:54PM 41.0953 -86.8550 320° Northwest 273 314 11,100 -540 Descending Chicago Center
04:55PM 41.1556 -86.9022 329° Northwest 257 296 11,100 -240 Level Chicago Center
04:56PM 41.2119 -86.9758 316° Northwest 255 293 10,700 -840 Descending Chicago Center
04:57PM 41.2494 -87.0567 302° West 259 298 9,400 -1,320 Descending Chicago Center
04:58PM 41.2892 -87.1350 304° West 258 297 8,000 -1,320 Descending Chicago Center
04:59PM 41.3278 -87.2119 304° West 254 292 6,700 -1,260 Descending Chicago Center
05:00PM 41.3678 -87.2911 304° West 257 296 5,400 -1,320 Descending Chicago Center
05:01PM 41.4389 -87.3503 328° Northwest 266 306 4,000 -720 Descending Chicago Center
05:02PM 41.4922 -87.3694 345° North 257 296 4,000 -60 Level Chicago Center
05:03PM 41.5642 -87.4150 335° Northwest 242 278 3,900 -60 Descending Chicago Center
05:04PM 41.6025 -87.4794 309° West 238 274 3,900 60 Level Chicago Center
05:05PM 41.6411 -87.5469 307° West 233 268 4,100 -360 Climbing Chicago Center
05:06PM 41.6911 -87.6161 314° West 222 255 3,200 -960 Descending Chicago Center
05:07PM 41.7236 -87.6658 311° West 202 232 2,200 -840 Descending Chicago Center
05:08PM 41.7494 -87.7019 314° West 158 182 1,500 -600 Descending Chicago Center
05:09PM 41.7764 -87.7394 314° West 144 166 1,000 -540 Descending Chicago Center
05:11PM 41.7833 -87.7500 14° North  Level FlightAware Approximate